Patterson, Arkansas
Current Conditions -  °F | °C
As of 2:56 AM on Sunday 26 Oct 2014 (Local Time) from KM19 Reporting Station
Haze Haze  
Wind Chill: 62°   Ceiling: Unl
Heat Index: 62°   Visibility: 3mi
Dew Point: 62°   Wind: 7mph
Humidity: 100%   Direction: 130°SE
Pressure: 29.99"   Gusts: NA
Location:  35.26°N, 91.24°W
Report Text: KM19 260756Z AUTO 13006KT 3SM BR CLR 17/17 A2999 RMK AO2 T01660166 SLP153
Loading
Personal Weather Stations






























Interactive Weather Map
Tropical Storm Tracking
New forecast layout! Learn more

10-Day Weather Forecast

Advertisements
Track Severe Weather on mobile